Time;durP1;ratioP1;P1;durP2;ratioP2;P2;SDS_P1;SDS_P2;PMS_P1;PMS_P2;Temp;Humidity;BMP_temperature;BMP_pressure;BME280_temperature;BME280_humidity;BME280_pressure;Samples;Min_cycle;Max_cycle;Signal;HPM_P1;HPM_P2
2022/03/24 00:01:51;;;;;;;;;;;;;;;;;;4997565;28;19936;-25
2022/03/24 00:04:17;;;;;;;;;;;;;;;;;;5015071;28;19914;-24
2022/03/24 00:06:44;;;;;;;;;;;;;;;;;;5015310;28;19924;-24
2022/03/24 00:09:12;;;;;;;;;;;;;;;;;;5014977;28;19913;-24
2022/03/24 00:11:40;;;;;;;;;;;;;;;;;;5015287;28;19913;-24
2022/03/24 00:14:06;;;;;;;;;;;;;;;;;;4997527;28;19955;-24
2022/03/24 00:16:34;;;;;;;;;;;;;;;;;;5014955;28;19917;-24
2022/03/24 00:19:00;;;;;;;;;;;;;;;;;;5015185;28;19917;-24
2022/03/24 00:21:27;;;;;;;;;;;;;;;;;;5014821;28;20276;-24
2022/03/24 00:23:53;;;;;;;;;;;;;;;;;;4997380;28;20016;-24
2022/03/24 00:26:19;;;;;;;;;;;;;;;;;;5015048;28;19921;-24
2022/03/24 00:28:46;;;;;;;;;;;;;;;;;;5014845;28;19916;-24
2022/03/24 00:31:14;;;;;;;;;;;;;;;;;;5015062;28;20001;-24
2022/03/24 00:33:40;;;;;;;;;;;;;;;;;;5014617;28;19910;-24
2022/03/24 00:36:06;;;;;;;;;;;;;;;;;;5014890;28;19917;-24
2022/03/24 00:38:32;;;;;;;;;;;;;;;;;;5014491;28;20257;-24
2022/03/24 00:41:01;;;;;;;;;;;;;;;;;;5014873;28;19980;-24
2022/03/24 00:43:27;;;;;;;;;;;;;;;;;;4997162;28;19925;-24
2022/03/24 00:45:53;;;;;;;;;;;;;;;;;;5014677;28;19914;-24
2022/03/24 00:48:23;;;;;;;;;;;;;;;;;;5014872;28;19970;-24
2022/03/24 00:50:50;;;;;;;;;;;;;;;;;;5014577;28;19920;-24
2022/03/24 00:53:17;;;;;;;;;;;;;;;;;;5014638;28;20064;-24
2022/03/24 00:55:44;;;;;;;;;;;;;;;;;;5014852;28;20360;-24
2022/03/24 00:58:13;;;;;;;;;;;;;;;;;;4997262;28;19922;-24
2022/03/24 01:00:40;;;;;;;;;;;;;;;;;;5015938;28;20303;-23
2022/03/24 01:03:07;;;;;;;;;;;;;;;;;;5018140;28;19921;-24
2022/03/24 01:05:37;;;;;;;;;;;;;;;;;;5018406;28;19952;-24
2022/03/24 01:08:05;;;;;;;;;;;;;;;;;;5018097;28;19917;-24
2022/03/24 01:10:32;;;;;;;;;;;;;;;;;;5000801;28;19924;-25
2022/03/24 01:12:59;;;;;;;;;;;;;;;;;;5018011;28;19936;-24
2022/03/24 01:15:26;;;;;;;;;;;;;;;;;;5018083;28;20222;-24
2022/03/24 01:17:53;;;;;;;;;;;;;;;;;;5000624;28;19945;-24
2022/03/24 01:20:19;;;;;;;;;;;;;;;;;;5018046;28;19986;-24
2022/03/24 01:22:46;;;;;;;;;;;;;;;;;;5017734;28;19921;-24
2022/03/24 01:25:12;;;;;;;;;;;;;;;;;;5017933;28;19956;-24
2022/03/24 01:27:40;;;;;;;;;;;;;;;;;;5018065;28;19924;-24
2022/03/24 01:30:08;;;;;;;;;;;;;;;;;;5000471;28;19921;-24
2022/03/24 01:32:37;;;;;;;;;;;;;;;;;;5017881;28;19920;-24
2022/03/24 01:35:03;;;;;;;;;;;;;;;;;;5018001;28;19923;-24
2022/03/24 01:37:30;;;;;;;;;;;;;;;;;;5017449;28;19932;-24
2022/03/24 01:39:56;;;;;;;;;;;;;;;;;;5018273;28;20000;-24
2022/03/24 01:42:23;;;;;;;;;;;;;;;;;;5017476;28;19928;-24
2022/03/24 01:44:50;;;;;;;;;;;;;;;;;;5017466;28;19913;-24
2022/03/24 01:47:16;;;;;;;;;;;;;;;;;;5017664;28;19921;-25
2022/03/24 01:49:44;;;;;;;;;;;;;;;;;;5017393;28;19913;-24
2022/03/24 01:52:12;;;;;;;;;;;;;;;;;;5017268;28;19976;-24
2022/03/24 01:54:38;;;;;;;;;;;;;;;;;;4999924;28;19968;-24
2022/03/24 01:57:06;;;;;;;;;;;;;;;;;;5017260;28;19910;-24
2022/03/24 01:59:32;;;;;;;;;;;;;;;;;;5017201;28;19913;-24
2022/03/24 02:01:59;;;;;;;;;;;;;;;;;;5017056;28;19917;-24
2022/03/24 02:04:26;;;;;;;;;;;;;;;;;;5017198;28;20315;-24
2022/03/24 02:06:52;;;;;;;;;;;;;;;;;;5017336;28;19913;-24
2022/03/24 02:09:18;;;;;;;;;;;;;;;;;;5017102;28;19913;-24
2022/03/24 02:11:47;;;;;;;;;;;;;;;;;;5016747;28;19975;-24
2022/03/24 02:14:13;;;;;;;;;;;;;;;;;;5017195;28;19949;-24
2022/03/24 02:16:39;;;;;;;;;;;;;;;;;;5016850;28;19952;-24
2022/03/24 02:19:05;;;;;;;;;;;;;;;;;;5016816;28;20003;-24
2022/03/24 02:21:31;;;;;;;;;;;;;;;;;;5017022;28;19963;-24
2022/03/24 02:23:59;;;;;;;;;;;;;;;;;;5016693;28;19914;-24
2022/03/24 02:26:26;;;;;;;;;;;;;;;;;;5016681;28;19968;-25
2022/03/24 02:28:54;;;;;;;;;;;;;;;;;;5016692;28;20013;-24
2022/03/24 02:31:22;;;;;;;;;;;;;;;;;;5016567;28;19913;-24
2022/03/24 02:33:48;;;;;;;;;;;;;;;;;;5016449;28;19925;-24
2022/03/24 02:36:14;;;;;;;;;;;;;;;;;;5016839;28;19909;-24
2022/03/24 02:38:41;;;;;;;;;;;;;;;;;;5016102;28;19928;-24
2022/03/24 02:41:07;;;;;;;;;;;;;;;;;;4999156;28;19975;-24
2022/03/24 02:43:35;;;;;;;;;;;;;;;;;;5016339;28;19917;-24
2022/03/24 02:46:02;;;;;;;;;;;;;;;;;;5016675;28;20004;-24
2022/03/24 02:48:29;;;;;;;;;;;;;;;;;;5016309;28;19971;-24
2022/03/24 02:50:57;;;;;;;;;;;;;;;;;;5016271;28;19967;-24
2022/03/24 02:53:23;;;;;;;;;;;;;;;;;;5016141;28;19956;-25
2022/03/24 02:55:49;;;;;;;;;;;;;;;;;;5016224;28;19914;-24
2022/03/24 02:58:15;;;;;;;;;;;;;;;;;;5016467;28;20027;-24
2022/03/24 03:00:43;;;;;;;;;;;;;;;;;;5016182;28;19914;-25
2022/03/24 03:03:10;;;;;;;;;;;;;;;;;;5015978;28;19914;-25
2022/03/24 03:05:38;;;;;;;;;;;;;;;;;;4998737;28;19917;-24
2022/03/24 03:08:07;;;;;;;;;;;;;;;;;;5016291;28;19909;-25
2022/03/24 03:10:34;;;;;;;;;;;;;;;;;;5015943;28;19913;-24
2022/03/24 03:13:00;;;;;;;;;;;;;;;;;;5015876;28;19924;-25
2022/03/24 03:15:26;;;;;;;;;;;;;;;;;;5016163;28;20033;-25
2022/03/24 03:17:52;;;;;;;;;;;;;;;;;;5015803;28;19914;-24
2022/03/24 03:20:20;;;;;;;;;;;;;;;;;;5016338;28;19988;-25
2022/03/24 03:22:47;;;;;;;;;;;;;;;;;;4997807;28;19953;-25
2022/03/24 03:25:13;;;;;;;;;;;;;;;;;;5015786;28;19929;-24
2022/03/24 03:27:41;;;;;;;;;;;;;;;;;;5015576;28;19949;-24
2022/03/24 03:30:07;;;;;;;;;;;;;;;;;;5016122;28;19929;-25
2022/03/24 03:32:34;;;;;;;;;;;;;;;;;;5015482;28;19944;-24
2022/03/24 03:35:01;;;;;;;;;;;;;;;;;;5015886;28;19913;-24
2022/03/24 03:37:27;;;;;;;;;;;;;;;;;;5015262;28;19937;-24
2022/03/24 03:39:55;;;;;;;;;;;;;;;;;;5015528;28;19988;-24
2022/03/24 03:42:24;;;;;;;;;;;;;;;;;;5015296;28;19918;-24
2022/03/24 03:44:51;;;;;;;;;;;;;;;;;;5015330;28;19910;-25
2022/03/24 03:47:17;;;;;;;;;;;;;;;;;;4998040;28;19917;-24
2022/03/24 03:49:43;;;;;;;;;;;;;;;;;;5015277;28;19992;-25
2022/03/24 03:52:09;;;;;;;;;;;;;;;;;;4997904;28;19913;-24
2022/03/24 03:54:37;;;;;;;;;;;;;;;;;;5015442;28;20070;-25
2022/03/24 03:57:03;;;;;;;;;;;;;;;;;;5015188;28;19940;-25
2022/03/24 03:59:29;;;;;;;;;;;;;;;;;;5015122;28;19914;-24
2022/03/24 04:01:58;;;;;;;;;;;;;;;;;;5014975;28;19955;-24
2022/03/24 04:04:24;;;;;;;;;;;;;;;;;;4997734;28;19924;-24
2022/03/24 04:06:51;;;;;;;;;;;;;;;;;;5015076;28;19913;-25
2022/03/24 04:09:17;;;;;;;;;;;;;;;;;;5015322;28;19920;-24
2022/03/24 04:11:43;;;;;;;;;;;;;;;;;;5015018;28;20000;-24
2022/03/24 04:14:10;;;;;;;;;;;;;;;;;;4997594;28;19910;-24
2022/03/24 04:16:36;;;;;;;;;;;;;;;;;;5015217;28;19922;-25
2022/03/24 04:19:05;;;;;;;;;;;;;;;;;;5014992;28;19984;-25
2022/03/24 04:21:33;;;;;;;;;;;;;;;;;;5015217;28;19914;-24
2022/03/24 04:24:03;;;;;;;;;;;;;;;;;;5014804;28;20264;-24
2022/03/24 04:26:29;;;;;;;;;;;;;;;;;;5014865;28;19922;-24
2022/03/24 04:28:55;;;;;;;;;;;;;;;;;;5014846;28;19956;-25
2022/03/24 04:31:23;;;;;;;;;;;;;;;;;;5015134;28;19917;-24
2022/03/24 04:33:49;;;;;;;;;;;;;;;;;;5014696;28;19967;-24
2022/03/24 04:36:16;;;;;;;;;;;;;;;;;;5018757;28;19986;-25
2022/03/24 04:38:42;;;;;;;;;;;;;;;;;;5000833;28;19922;-24
2022/03/24 04:41:08;;;;;;;;;;;;;;;;;;5001256;28;20264;-24
2022/03/24 04:43:35;;;;;;;;;;;;;;;;;;5018599;28;19920;-26
2022/03/24 04:46:01;;;;;;;;;;;;;;;;;;5018257;28;20024;-25
2022/03/24 04:48:35;;;;;;;;;;;;;;;;;;5001084;28;19996;-24
2022/03/24 04:51:01;;;;;;;;;;;;;;;;;;5018650;28;19920;-25
2022/03/24 04:53:29;;;;;;;;;;;;;;;;;;5000844;28;19909;-24
2022/03/24 04:55:55;;;;;;;;;;;;;;;;;;5001432;28;20356;-25
2022/03/24 04:58:21;;;;;;;;;;;;;;;;;;5018122;28;20344;-24
2022/03/24 05:03:30;;;;;;;;;;;;;;;;;;5280394;23;19925;-25
2022/03/24 05:05:57;;;;;;;;;;;;;;;;;;5018342;28;19914;-25
2022/03/24 05:08:23;;;;;;;;;;;;;;;;;;5017836;28;19913;-25
2022/03/24 05:10:50;;;;;;;;;;;;;;;;;;5017341;28;19913;-24
2022/03/24 05:13:16;;;;;;;;;;;;;;;;;;5017184;28;20252;-25
2022/03/24 05:15:43;;;;;;;;;;;;;;;;;;5000013;28;19914;-25
2022/03/24 05:18:10;;;;;;;;;;;;;;;;;;5017655;28;19937;-24
2022/03/24 05:20:36;;;;;;;;;;;;;;;;;;5017443;28;19914;-25
2022/03/24 05:23:02;;;;;;;;;;;;;;;;;;5017221;28;19995;-24
2022/03/24 05:25:28;;;;;;;;;;;;;;;;;;5000115;28;19920;-25
2022/03/24 05:27:54;;;;;;;;;;;;;;;;;;5017465;28;19928;-24
2022/03/24 05:30:21;;;;;;;;;;;;;;;;;;5000043;28;20239;-24
2022/03/24 05:32:47;;;;;;;;;;;;;;;;;;5017237;28;19924;-24
2022/03/24 05:35:17;;;;;;;;;;;;;;;;;;5000823;28;19913;-25
2022/03/24 05:37:44;;;;;;;;;;;;;;;;;;5017250;28;19914;-25
2022/03/24 05:40:10;;;;;;;;;;;;;;;;;;5017447;28;19963;-25
2022/03/24 05:42:36;;;;;;;;;;;;;;;;;;5016798;28;19917;-25
2022/03/24 05:45:03;;;;;;;;;;;;;;;;;;5016893;28;19909;-25
2022/03/24 05:47:31;;;;;;;;;;;;;;;;;;5016652;28;20344;-25
2022/03/24 05:49:57;;;;;;;;;;;;;;;;;;5016969;28;19913;-25
2022/03/24 05:52:23;;;;;;;;;;;;;;;;;;4999446;28;19914;-25
2022/03/24 05:54:50;;;;;;;;;;;;;;;;;;5016987;28;19949;-25
2022/03/24 05:57:19;;;;;;;;;;;;;;;;;;5016822;28;19996;-25
2022/03/24 05:59:45;;;;;;;;;;;;;;;;;;4999350;28;19996;-25
2022/03/24 06:02:13;;;;;;;;;;;;;;;;;;5016294;28;19913;-25
2022/03/24 06:04:42;;;;;;;;;;;;;;;;;;4976089;28;19960;-25
2022/03/24 06:07:08;;;;;;;;;;;;;;;;;;4977547;28;20001;-25
2022/03/24 06:09:35;;;;;;;;;;;;;;;;;;4977382;28;19925;-25
2022/03/24 06:12:06;;;;;;;;;;;;;;;;;;4977412;28;19910;-25
2022/03/24 06:14:34;;;;;;;;;;;;;;;;;;4977779;28;20357;-25
2022/03/24 06:17:01;;;;;;;;;;;;;;;;;;4977593;28;19914;-25
2022/03/24 06:19:27;;;;;;;;;;;;;;;;;;4977270;28;19937;-25
2022/03/24 06:21:53;;;;;;;;;;;;;;;;;;4976258;28;20021;-25
2022/03/24 06:24:19;;;;;;;;;;;;;;;;;;4976333;28;20013;-26
2022/03/24 06:26:46;;;;;;;;;;;;;;;;;;4976310;28;19937;-25
2022/03/24 06:29:13;;;;;;;;;;;;;;;;;;4977199;28;19918;-26
2022/03/24 06:31:39;;;;;;;;;;;;;;;;;;4977467;28;19914;-26
2022/03/24 06:34:06;;;;;;;;;;;;;;;;;;4977317;28;19918;-25
2022/03/24 06:36:32;;;;;;;;;;;;;;;;;;4977089;28;19937;-26
2022/03/24 06:39:01;;;;;;;;;;;;;;;;;;4977467;28;20264;-24
2022/03/24 06:41:27;;;;;;;;;;;;;;;;;;4975863;28;19973;-24
2022/03/24 06:43:59;;;;;;;;;;;;;;;;;;4976676;28;19952;-24
2022/03/24 06:46:25;;;;;;;;;;;;;;;;;;4975363;28;19921;-26
2022/03/24 06:48:52;;;;;;;;;;;;;;;;;;4976691;28;19980;-26
2022/03/24 06:51:18;;;;;;;;;;;;;;;;;;4977092;28;20037;-25
2022/03/24 06:53:45;;;;;;;;;;;;;;;;;;4976711;28;20319;-25
2022/03/24 06:58:56;;;;;;;;;;;;;;;;;;4975650;28;20001;-26
2022/03/24 07:01:24;;;;;;;;;;;;;;;;;;4976688;28;19924;-25
2022/03/24 07:31:52;;;;;;;;;;;;;;;;;;4443929;27;2481103;-30
2022/03/24 07:34:18;;;;;;;;;;;;;;;;;;5093110;28;19922;-29
2022/03/24 07:36:44;;;;;;;;;;;;;;;;;;5111127;28;19912;-28
2022/03/24 07:39:12;;;;;;;;;;;;;;;;;;5111436;28;19912;-32
2022/03/24 07:41:38;;;;;;;;;;;;;;;;;;5111688;28;19923;-31
2022/03/24 07:44:04;;;;;;;;;;;;;;;;;;5111692;28;19957;-32
2022/03/24 07:46:33;;;;;;;;;;;;;;;;;;5111524;28;19912;-34
2022/03/24 07:48:59;;;;;;;;;;;;;;;;;;5111085;28;20302;-27
2022/03/24 07:51:26;;;;;;;;;;;;;;;;;;5111283;28;20405;-32
2022/03/24 07:53:52;;;;;;;;;;;;;;;;;;5111135;28;19999;-30
2022/03/24 07:56:18;;;;;;;;;;;;;;;;;;5111265;28;19919;-28
2022/03/24 07:58:45;;;;;;;;;;;;;;;;;;5111115;28;19985;-30
2022/03/24 08:01:11;;;;;;;;;;;;;;;;;;5111333;28;20003;-32
2022/03/24 08:03:38;;;;;;;;;;;;;;;;;;5111034;28;19934;-32
2022/03/24 08:06:06;;;;;;;;;;;;;;;;;;5093161;28;19923;-32
2022/03/24 08:08:32;;;;;;;;;;;;;;;;;;5093126;28;20057;-34
2022/03/24 08:10:59;;;;;;;;;;;;;;;;;;5111326;28;20277;-30
2022/03/24 08:13:25;;;;;;;;;;;;;;;;;;5111296;28;19908;-35
2022/03/24 08:15:52;;;;;;;;;;;;;;;;;;5111187;28;20289;-32
2022/03/24 08:18:19;;;;;;;;;;;;;;;;;;5110810;28;19912;-30
2022/03/24 08:20:47;;;;;;;;;;;;;;;;;;5110774;28;19916;-29
2022/03/24 08:23:13;;;;;;;;;;;;;;;;;;5110710;28;19920;-26
2022/03/24 08:25:42;;;;;;;;;;;;;;;;;;5111228;28;19947;-28
2022/03/24 08:28:10;;;;;;;;;;;;;;;;;;5110641;28;19912;-31
2022/03/24 08:30:37;;;;;;;;;;;;;;;;;;5106651;28;19920;-30
2022/03/24 08:33:04;;;;;;;;;;;;;;;;;;5096699;28;19920;-32
2022/03/24 08:35:30;;;;;;;;;;;;;;;;;;5097097;28;19908;-31
2022/03/24 08:37:56;;;;;;;;;;;;;;;;;;5096951;28;19954;-32
2022/03/24 08:40:22;;;;;;;;;;;;;;;;;;5097091;28;19924;-33
2022/03/24 08:42:48;;;;;;;;;;;;;;;;;;5096600;28;20004;-31
2022/03/24 08:45:16;;;;;;;;;;;;;;;;;;5078686;28;19912;-28
2022/03/24 08:47:42;;;;;;;;;;;;;;;;;;5097008;28;19908;-27
2022/03/24 08:50:08;;;;;;;;;;;;;;;;;;5096594;28;19912;-35
2022/03/24 08:52:35;;;;;;;;;;;;;;;;;;5096910;28;19908;-32
2022/03/24 08:55:01;;;;;;;;;;;;;;;;;;5096449;28;19919;-32
2022/03/24 08:57:29;;;;;;;;;;;;;;;;;;5096761;28;20286;-32
2022/03/24 08:59:55;;;;;;;;;;;;;;;;;;5097143;28;19916;-31
2022/03/24 09:02:21;;;;;;;;;;;;;;;;;;5096548;28;19912;-34
2022/03/24 09:04:49;;;;;;;;;;;;;;;;;;5096412;28;20002;-36
2022/03/24 09:07:20;;;;;;;;;;;;;;;;;;5096670;28;19912;-31
2022/03/24 09:09:47;;;;;;;;;;;;;;;;;;5096915;28;20282;-32
2022/03/24 09:12:13;;;;;;;;;;;;;;;;;;5096795;28;19912;-26
2022/03/24 09:14:40;;;;;;;;;;;;;;;;;;5096647;28;19908;-31
2022/03/24 09:17:07;;;;;;;;;;;;;;;;;;5096103;28;19912;-27
2022/03/24 09:19:33;;;;;;;;;;;;;;;;;;5096036;28;20354;-33
2022/03/24 09:21:59;;;;;;;;;;;;;;;;;;5096468;28;20002;-33
2022/03/24 09:24:26;;;;;;;;;;;;;;;;;;5096103;28;19961;-27
2022/03/24 09:26:52;;;;;;;;;;;;;;;;;;5095748;28;20382;-31
2022/03/24 09:29:18;;;;;;;;;;;;;;;;;;5078063;28;19934;-33
2022/03/24 09:31:47;;;;;;;;;;;;;;;;;;5095966;28;19928;-30
2022/03/24 09:34:13;;;;;;;;;;;;;;;;;;5095758;28;19969;-29
2022/03/24 09:36:40;;;;;;;;;;;;;;;;;;5078041;28;19912;-30
2022/03/24 09:39:09;;;;;;;;;;;;;;;;;;5095720;28;20006;-28
2022/03/24 09:41:37;;;;;;;;;;;;;;;;;;5095381;28;20012;-32
2022/03/24 09:44:03;;;;;;;;;;;;;;;;;;5094548;28;19969;-28
2022/03/24 09:46:29;;;;;;;;;;;;;;;;;;5095397;28;19920;-26
2022/03/24 09:48:57;;;;;;;;;;;;;;;;;;5095300;28;19985;-33
2022/03/24 09:51:23;;;;;;;;;;;;;;;;;;5095125;28;19912;-32
2022/03/24 09:53:50;;;;;;;;;;;;;;;;;;5095301;28;19908;-30
2022/03/24 09:56:16;;;;;;;;;;;;;;;;;;5095166;28;19922;-28
2022/03/24 09:58:44;;;;;;;;;;;;;;;;;;5076766;28;19942;-29
2022/03/24 10:01:13;;;;;;;;;;;;;;;;;;5095460;28;19919;-29
2022/03/24 10:03:41;;;;;;;;;;;;;;;;;;5094863;28;20262;-28
2022/03/24 10:06:09;;;;;;;;;;;;;;;;;;5094918;28;19916;-30
2022/03/24 10:08:36;;;;;;;;;;;;;;;;;;5076668;28;19935;-29
2022/03/24 10:11:03;;;;;;;;;;;;;;;;;;5076570;28;19920;-26
2022/03/24 10:13:31;;;;;;;;;;;;;;;;;;5094567;28;19962;-28
2022/03/24 10:15:57;;;;;;;;;;;;;;;;;;5094543;28;19952;-29
2022/03/24 10:18:24;;;;;;;;;;;;;;;;;;5094519;28;19908;-25
2022/03/24 10:20:50;;;;;;;;;;;;;;;;;;5094861;28;20214;-28
2022/03/24 10:23:17;;;;;;;;;;;;;;;;;;5094952;28;19919;-28
2022/03/24 10:25:46;;;;;;;;;;;;;;;;;;5094859;28;19912;-27
2022/03/24 10:28:13;;;;;;;;;;;;;;;;;;5094990;28;20305;-26
2022/03/24 10:30:39;;;;;;;;;;;;;;;;;;5094872;28;20267;-33
2022/03/24 10:33:06;;;;;;;;;;;;;;;;;;5094751;28;19970;-27
2022/03/24 10:35:35;;;;;;;;;;;;;;;;;;5094960;28;20304;-32
2022/03/24 10:38:02;;;;;;;;;;;;;;;;;;5094838;28;20303;-28
2022/03/24 10:40:29;;;;;;;;;;;;;;;;;;5076702;28;19920;-29
2022/03/24 10:42:59;;;;;;;;;;;;;;;;;;5095069;28;19915;-28
2022/03/24 10:45:25;;;;;;;;;;;;;;;;;;5094562;28;19960;-25
2022/03/24 10:47:51;;;;;;;;;;;;;;;;;;5094442;28;19908;-25
2022/03/24 10:50:18;;;;;;;;;;;;;;;;;;5094641;28;19919;-31
2022/03/24 10:52:44;;;;;;;;;;;;;;;;;;5094554;28;19916;-24
2022/03/24 10:55:11;;;;;;;;;;;;;;;;;;5094180;28;19912;-30
2022/03/24 10:57:37;;;;;;;;;;;;;;;;;;5094487;28;20328;-27
2022/03/24 11:00:04;;;;;;;;;;;;;;;;;;5094240;28;19912;-25
2022/03/24 11:02:34;;;;;;;;;;;;;;;;;;5094681;28;19952;-30
2022/03/24 11:05:02;;;;;;;;;;;;;;;;;;5094610;28;19914;-32
2022/03/24 11:07:28;;;;;;;;;;;;;;;;;;5094548;28;19923;-28
2022/03/24 11:09:54;;;;;;;;;;;;;;;;;;5094394;28;19959;-28
2022/03/24 11:12:20;;;;;;;;;;;;;;;;;;5094349;28;20365;-29
2022/03/24 11:14:50;;;;;;;;;;;;;;;;;;5094487;28;19909;-31
2022/03/24 11:17:16;;;;;;;;;;;;;;;;;;5076053;28;19912;-30
2022/03/24 11:19:42;;;;;;;;;;;;;;;;;;5076141;28;20350;-27
2022/03/24 11:22:08;;;;;;;;;;;;;;;;;;5094266;28;19995;-27
2022/03/24 11:24:37;;;;;;;;;;;;;;;;;;5094199;28;19980;-28
2022/03/24 11:27:03;;;;;;;;;;;;;;;;;;5094121;28;19923;-28
2022/03/24 11:29:29;;;;;;;;;;;;;;;;;;5076389;28;20285;-29
2022/03/24 11:31:55;;;;;;;;;;;;;;;;;;5093793;28;19920;-32
2022/03/24 11:34:21;;;;;;;;;;;;;;;;;;5075957;28;19971;-27
2022/03/24 11:36:50;;;;;;;;;;;;;;;;;;5076066;28;20254;-32
2022/03/24 11:39:16;;;;;;;;;;;;;;;;;;5093942;28;19920;-27
2022/03/24 11:41:42;;;;;;;;;;;;;;;;;;5094235;28;19923;-33
2022/03/24 11:44:10;;;;;;;;;;;;;;;;;;5094023;28;19950;-28
2022/03/24 11:46:38;;;;;;;;;;;;;;;;;;5093862;28;20059;-26
2022/03/24 11:49:04;;;;;;;;;;;;;;;;;;5094242;28;19908;-29
2022/03/24 11:51:32;;;;;;;;;;;;;;;;;;5093826;28;19923;-27
2022/03/24 11:53:58;;;;;;;;;;;;;;;;;;5093598;28;19912;-28
2022/03/24 11:56:24;;;;;;;;;;;;;;;;;;5075664;28;19939;-30
2022/03/24 11:58:52;;;;;;;;;;;;;;;;;;5093201;28;19920;-29
2022/03/24 12:01:21;;;;;;;;;;;;;;;;;;5093209;28;19926;-25
2022/03/24 12:03:48;;;;;;;;;;;;;;;;;;5093111;28;19912;-29
2022/03/24 12:06:16;;;;;;;;;;;;;;;;;;5094684;28;20003;-30
2022/03/24 12:08:43;;;;;;;;;;;;;;;;;;5096986;28;19956;-26
2022/03/24 12:11:10;;;;;;;;;;;;;;;;;;5097063;28;19942;-27
2022/03/24 12:13:36;;;;;;;;;;;;;;;;;;5096940;28;19931;-29
2022/03/24 12:16:05;;;;;;;;;;;;;;;;;;5078653;28;19913;-29
2022/03/24 12:18:31;;;;;;;;;;;;;;;;;;5078646;28;19961;-28
2022/03/24 12:20:59;;;;;;;;;;;;;;;;;;5096413;28;19951;-32
2022/03/24 12:23:28;;;;;;;;;;;;;;;;;;5079013;28;19908;-26
2022/03/24 12:25:54;;;;;;;;;;;;;;;;;;5097634;28;19938;-31
2022/03/24 12:28:20;;;;;;;;;;;;;;;;;;5097162;28;19908;-27
2022/03/24 12:30:48;;;;;;;;;;;;;;;;;;5097191;28;20316;-31
2022/03/24 12:33:14;;;;;;;;;;;;;;;;;;5097350;28;19969;-25
2022/03/24 12:35:41;;;;;;;;;;;;;;;;;;5097318;28;19912;-32
2022/03/24 12:38:07;;;;;;;;;;;;;;;;;;5079085;28;19935;-30
2022/03/24 12:40:33;;;;;;;;;;;;;;;;;;5096962;28;20275;-30
2022/03/24 12:43:01;;;;;;;;;;;;;;;;;;5097099;28;19912;-28
2022/03/24 12:45:29;;;;;;;;;;;;;;;;;;5078939;28;19916;-29
2022/03/24 12:47:56;;;;;;;;;;;;;;;;;;5097340;28;19930;-29
2022/03/24 12:50:25;;;;;;;;;;;;;;;;;;5079000;28;19951;-30
2022/03/24 12:52:52;;;;;;;;;;;;;;;;;;5096864;28;19912;-28
2022/03/24 12:55:19;;;;;;;;;;;;;;;;;;5096890;28;20281;-28
2022/03/24 12:57:45;;;;;;;;;;;;;;;;;;5078797;28;19962;-27
2022/03/24 13:00:13;;;;;;;;;;;;;;;;;;5096709;28;20319;-27
2022/03/24 13:02:42;;;;;;;;;;;;;;;;;;5096558;28;19995;-28
2022/03/24 13:05:11;;;;;;;;;;;;;;;;;;5096136;28;19938;-32
2022/03/24 13:07:37;;;;;;;;;;;;;;;;;;5096121;28;19923;-31
2022/03/24 13:10:04;;;;;;;;;;;;;;;;;;5096041;28;19916;-30
2022/03/24 13:12:30;;;;;;;;;;;;;;;;;;5078048;28;19916;-30
2022/03/24 13:14:58;;;;;;;;;;;;;;;;;;5096102;28;19912;-31
2022/03/24 13:17:26;;;;;;;;;;;;;;;;;;5096014;28;19923;-26
2022/03/24 13:19:52;;;;;;;;;;;;;;;;;;5096293;28;20202;-30
2022/03/24 13:22:22;;;;;;;;;;;;;;;;;;5096330;28;19912;-27
2022/03/24 13:24:48;;;;;;;;;;;;;;;;;;5096000;28;19916;-27
2022/03/24 13:27:17;;;;;;;;;;;;;;;;;;5095990;28;19912;-29
2022/03/24 13:29:44;;;;;;;;;;;;;;;;;;5095759;28;20010;-24
2022/03/24 13:32:10;;;;;;;;;;;;;;;;;;5095425;28;19931;-28
2022/03/24 13:34:36;;;;;;;;;;;;;;;;;;5095465;28;19908;-28
2022/03/24 13:37:03;;;;;;;;;;;;;;;;;;5095666;28;19995;-28
2022/03/24 13:39:29;;;;;;;;;;;;;;;;;;5095534;28;19916;-27
2022/03/24 13:41:55;;;;;;;;;;;;;;;;;;5096117;28;19912;-29
2022/03/24 13:44:26;;;;;;;;;;;;;;;;;;5095975;28;20358;-29
2022/03/24 13:46:54;;;;;;;;;;;;;;;;;;5095550;28;19983;-30
2022/03/24 13:49:21;;;;;;;;;;;;;;;;;;5077809;28;20277;-30
2022/03/24 13:51:47;;;;;;;;;;;;;;;;;;5095664;28;20000;-28
2022/03/24 13:54:13;;;;;;;;;;;;;;;;;;5095688;28;19912;-32
2022/03/24 13:56:39;;;;;;;;;;;;;;;;;;5095537;28;19920;-28
2022/03/24 13:59:06;;;;;;;;;;;;;;;;;;5077456;28;19912;-31
2022/03/24 14:01:32;;;;;;;;;;;;;;;;;;5095226;28;20270;-27
2022/03/24 14:03:58;;;;;;;;;;;;;;;;;;5095551;28;19908;-28
2022/03/24 14:06:25;;;;;;;;;;;;;;;;;;5095681;28;19912;-31
2022/03/24 14:08:51;;;;;;;;;;;;;;;;;;5077732;28;19951;-30
2022/03/24 14:11:22;;;;;;;;;;;;;;;;;;5095625;28;20336;-28
2022/03/24 14:13:51;;;;;;;;;;;;;;;;;;5095680;28;19916;-27
2022/03/24 14:16:17;;;;;;;;;;;;;;;;;;5095550;28;19923;-27
2022/03/24 14:18:43;;;;;;;;;;;;;;;;;;5095193;28;19946;-27
2022/03/24 14:21:09;;;;;;;;;;;;;;;;;;5095415;28;20249;-27
2022/03/24 14:23:36;;;;;;;;;;;;;;;;;;5095289;28;19919;-24
2022/03/24 14:26:02;;;;;;;;;;;;;;;;;;5095178;28;19912;-29
2022/03/24 14:28:29;;;;;;;;;;;;;;;;;;5094556;28;19908;-31
2022/03/24 14:30:56;;;;;;;;;;;;;;;;;;5095192;28;19912;-31
2022/03/24 14:33:23;;;;;;;;;;;;;;;;;;5095889;28;19912;-29
2022/03/24 14:35:49;;;;;;;;;;;;;;;;;;5095230;28;19916;-27
2022/03/24 14:38:16;;;;;;;;;;;;;;;;;;5094683;28;19948;-29
2022/03/24 14:40:45;;;;;;;;;;;;;;;;;;5094687;28;19920;-26
2022/03/24 14:43:12;;;;;;;;;;;;;;;;;;5076665;28;19912;-30
2022/03/24 14:45:39;;;;;;;;;;;;;;;;;;5094738;28;19912;-27
2022/03/24 14:48:09;;;;;;;;;;;;;;;;;;5094774;28;19934;-26
2022/03/24 14:50:37;;;;;;;;;;;;;;;;;;5094809;28;19919;-27
2022/03/24 14:53:03;;;;;;;;;;;;;;;;;;5094709;28;19960;-30
2022/03/24 14:55:29;;;;;;;;;;;;;;;;;;5094687;28;19908;-34
2022/03/24 14:57:57;;;;;;;;;;;;;;;;;;5094410;28;19916;-28
2022/03/24 15:00:24;;;;;;;;;;;;;;;;;;5094540;28;19973;-27
2022/03/24 15:02:50;;;;;;;;;;;;;;;;;;5094283;28;19908;-32
2022/03/24 15:05:18;;;;;;;;;;;;;;;;;;5076584;28;19920;-28
2022/03/24 15:07:44;;;;;;;;;;;;;;;;;;5094526;28;19912;-28
2022/03/24 15:10:11;;;;;;;;;;;;;;;;;;5094680;28;19912;-28
2022/03/24 15:12:39;;;;;;;;;;;;;;;;;;5094327;28;19912;-26
2022/03/24 15:17:54;;;;;;;;;;;;;;;;;;5094580;28;19945;-29
2022/03/24 15:20:20;;;;;;;;;;;;;;;;;;5094525;28;19973;-27
2022/03/24 15:22:46;;;;;;;;;;;;;;;;;;5094685;28;19909;-24
2022/03/24 15:25:13;;;;;;;;;;;;;;;;;;5076500;28;19935;-27
2022/03/24 15:27:39;;;;;;;;;;;;;;;;;;5094739;28;19912;-28
2022/03/24 15:30:06;;;;;;;;;;;;;;;;;;5094417;28;20002;-26
2022/03/24 15:32:34;;;;;;;;;;;;;;;;;;5093929;28;19959;-33
2022/03/24 15:35:00;;;;;;;;;;;;;;;;;;5094548;28;19982;-31
2022/03/24 15:37:26;;;;;;;;;;;;;;;;;;5094240;28;19913;-31
2022/03/24 15:39:53;;;;;;;;;;;;;;;;;;5094505;28;20216;-27
2022/03/24 15:42:19;;;;;;;;;;;;;;;;;;5079795;28;19919;-28
2022/03/24 15:44:46;;;;;;;;;;;;;;;;;;5098598;28;20223;-28
2022/03/24 15:47:14;;;;;;;;;;;;;;;;;;5098147;28;20297;-28
2022/03/24 15:49:40;;;;;;;;;;;;;;;;;;5098075;28;19923;-27
2022/03/24 15:52:06;;;;;;;;;;;;;;;;;;5081075;28;19986;-27
2022/03/24 15:54:35;;;;;;;;;;;;;;;;;;5098736;28;20331;-27
2022/03/24 15:57:01;;;;;;;;;;;;;;;;;;5097864;28;19962;-31
2022/03/24 15:59:29;;;;;;;;;;;;;;;;;;5097880;28;19916;-28
2022/03/24 16:01:57;;;;;;;;;;;;;;;;;;5097519;28;19967;-29
2022/03/24 16:04:24;;;;;;;;;;;;;;;;;;5097946;28;20266;-30
2022/03/24 16:06:52;;;;;;;;;;;;;;;;;;5097390;28;19912;-32
2022/03/24 16:12:09;;;;;;;;;;;;;;;;;;5097153;28;19923;-32
2022/03/24 16:14:35;;;;;;;;;;;;;;;;;;5096810;28;19947;-26
2022/03/24 16:17:03;;;;;;;;;;;;;;;;;;5096966;28;19948;-29
2022/03/24 16:19:29;;;;;;;;;;;;;;;;;;5096959;28;20014;-27
2022/03/24 16:21:57;;;;;;;;;;;;;;;;;;5096939;28;20319;-28
2022/03/24 16:24:24;;;;;;;;;;;;;;;;;;5096863;28;19908;-28
2022/03/24 16:26:50;;;;;;;;;;;;;;;;;;5096980;28;19923;-30
2022/03/24 16:29:16;;;;;;;;;;;;;;;;;;5096917;28;19942;-29
2022/03/24 16:31:44;;;;;;;;;;;;;;;;;;5078556;28;20006;-29
2022/03/24 16:34:10;;;;;;;;;;;;;;;;;;5078687;28;19912;-30
2022/03/24 16:36:37;;;;;;;;;;;;;;;;;;5096748;28;19908;-26
2022/03/24 16:39:04;;;;;;;;;;;;;;;;;;5096618;28;19913;-27
2022/03/24 16:41:30;;;;;;;;;;;;;;;;;;5097264;28;20246;-31
2022/03/24 16:43:57;;;;;;;;;;;;;;;;;;5097196;28;19911;-31
2022/03/24 16:46:23;;;;;;;;;;;;;;;;;;5097455;28;20207;-30
2022/03/24 16:48:50;;;;;;;;;;;;;;;;;;5096949;28;19919;-29
2022/03/24 16:51:16;;;;;;;;;;;;;;;;;;5096877;28;20008;-29
2022/03/24 16:53:43;;;;;;;;;;;;;;;;;;5096933;28;19999;-27
2022/03/24 16:56:09;;;;;;;;;;;;;;;;;;5097094;28;19922;-25
2022/03/24 16:58:35;;;;;;;;;;;;;;;;;;5096840;28;20035;-29
2022/03/24 17:01:03;;;;;;;;;;;;;;;;;;5096674;28;19912;-27
2022/03/24 17:03:30;;;;;;;;;;;;;;;;;;5096773;28;20002;-24
2022/03/24 17:05:56;;;;;;;;;;;;;;;;;;5096786;28;19908;-28
2022/03/24 17:08:24;;;;;;;;;;;;;;;;;;5078848;28;20350;-28
2022/03/24 17:10:51;;;;;;;;;;;;;;;;;;5096531;28;19999;-30
2022/03/24 17:13:17;;;;;;;;;;;;;;;;;;5096820;28;19912;-27
2022/03/24 17:15:43;;;;;;;;;;;;;;;;;;5096378;28;19918;-27
2022/03/24 17:18:09;;;;;;;;;;;;;;;;;;5078337;28;20272;-28
2022/03/24 17:20:36;;;;;;;;;;;;;;;;;;5096111;28;19968;-24
2022/03/24 17:23:02;;;;;;;;;;;;;;;;;;5096473;28;19912;-30